createdAt,value
2019-06-26T00:01:09.040Z,46.9
2019-06-26T00:03:08.612Z,47.5
2019-06-26T00:05:09.201Z,47.7
2019-06-26T00:07:08.412Z,48
2019-06-26T00:09:08.618Z,48.3
2019-06-26T00:11:08.257Z,49
2019-06-26T00:13:08.303Z,50.1
2019-06-26T00:15:11.893Z,49.1
2019-06-26T00:17:08.296Z,49.4
2019-06-26T00:19:08.102Z,48.8
2019-06-26T00:21:07.850Z,49
2019-06-26T00:23:07.857Z,48.6
2019-06-26T00:25:08.076Z,49.9
2019-06-26T00:27:07.604Z,49.4
2019-06-26T00:29:07.611Z,49.4
2019-06-26T00:31:07.462Z,49.6
2019-06-26T00:33:07.691Z,49
2019-06-26T00:35:07.771Z,49.1
2019-06-26T00:37:07.336Z,47.8
2019-06-26T00:39:07.285Z,47.8
2019-06-26T00:41:07.267Z,46.8
2019-06-26T00:43:07.018Z,46.8
2019-06-26T00:45:08.624Z,45.3
2019-06-26T00:47:06.845Z,45.5
2019-06-26T00:49:06.843Z,45.3
2019-06-26T00:51:06.775Z,44.9
2019-06-26T00:53:06.859Z,45
2019-06-26T00:55:06.844Z,44.9
2019-06-26T00:57:06.625Z,45.7
2019-06-26T00:59:06.567Z,46.9
2019-06-26T01:01:06.622Z,46.4
2019-06-26T01:03:06.178Z,46.7
2019-06-26T01:05:06.683Z,47.5
2019-06-26T01:07:06.955Z,48.9
2019-06-26T01:09:06.984Z,47.7
2019-06-26T01:11:06.028Z,47.8
2019-06-26T01:13:05.637Z,48.4
2019-06-26T01:15:06.358Z,48.6
2019-06-26T01:17:05.617Z,47.9
2019-06-26T01:19:05.558Z,48
2019-06-26T01:21:05.290Z,51.5
2019-06-26T01:23:06.350Z,48.4
2019-06-26T01:25:06.532Z,49.5
2019-06-26T01:27:05.052Z,48.9
2019-06-26T01:29:05.402Z,48.8
2019-06-26T01:31:05.053Z,49
2019-06-26T01:33:04.731Z,49.6
2019-06-26T01:35:05.148Z,49.4
2019-06-26T01:37:04.635Z,48.5
2019-06-26T01:39:06.204Z,49.5
2019-06-26T01:41:04.428Z,49.2
2019-06-26T01:43:04.322Z,51.1
2019-06-26T01:45:04.706Z,49.2
2019-06-26T01:47:04.291Z,47.9
2019-06-26T01:49:05.282Z,47.6
2019-06-26T01:51:03.955Z,48.1
2019-06-26T01:53:03.848Z,51.6
2019-06-26T01:55:03.940Z,49.1
2019-06-26T01:57:03.798Z,48.6
2019-06-26T01:59:03.575Z,48
2019-06-26T02:01:03.804Z,48.7
2019-06-26T02:03:03.394Z,48.7
2019-06-26T02:05:03.627Z,49.9
2019-06-26T02:07:03.412Z,49
2019-06-26T02:09:06.944Z,49.7
2019-06-26T02:11:03.175Z,48.9
2019-06-26T02:13:02.997Z,51.7
2019-06-26T02:15:03.570Z,51.4
2019-06-26T02:17:03.093Z,51.3
2019-06-26T02:19:02.612Z,49.2
2019-06-26T02:21:03.611Z,50
2019-06-26T02:23:02.621Z,50.7
2019-06-26T02:25:02.604Z,49.9
2019-06-26T02:27:02.186Z,49.5
2019-06-26T02:29:02.288Z,49.1
2019-06-26T02:31:01.963Z,48.8
2019-06-26T02:33:01.924Z,48.8
2019-06-26T02:35:02.370Z,48
2019-06-26T02:37:01.686Z,48.6
2019-06-26T02:39:04.159Z,48.4
2019-06-26T02:41:01.769Z,48.2
2019-06-26T02:43:06.459Z,48.2
2019-06-26T02:45:02.830Z,48.3
2019-06-26T02:47:18.741Z,47.7
2019-06-26T02:49:01.188Z,46.9
2019-06-26T02:51:01.198Z,47.1
2019-06-26T02:53:01.250Z,46.5
2019-06-26T02:55:00.868Z,46.9
2019-06-26T02:57:00.920Z,47.2
2019-06-26T02:59:00.773Z,47
2019-06-26T03:01:00.854Z,46.9
2019-06-26T03:03:00.739Z,46.3
2019-06-26T03:05:00.684Z,45.8
2019-06-26T03:07:00.424Z,45.8
2019-06-26T03:09:00.307Z,46
2019-06-26T03:11:00.699Z,45.8
2019-06-26T03:13:00.344Z,46.2
2019-06-26T03:15:08.852Z,46.2
2019-06-26T03:17:00.635Z,45.4
2019-06-26T03:18:59.885Z,45.4
2019-06-26T03:20:59.908Z,45.7
2019-06-26T03:22:59.970Z,46
2019-06-26T03:24:59.645Z,45.7
2019-06-26T03:27:00.568Z,45.9
2019-06-26T03:28:59.755Z,46.2
2019-06-26T03:30:59.480Z,46.2
2019-06-26T03:32:59.363Z,45.7
2019-06-26T03:34:59.280Z,45.9
2019-06-26T03:36:59.214Z,45.8
2019-06-26T03:38:59.140Z,46.6
2019-06-26T03:40:59.143Z,45.4
2019-06-26T03:42:59.210Z,45.3
2019-06-26T03:44:58.770Z,44.7
2019-06-26T03:46:59.010Z,44.4
2019-06-26T03:48:50.487Z,44.4
2019-06-26T03:49:00.110Z,44.5
2019-06-26T03:50:58.630Z,44.4
2019-06-26T03:52:58.632Z,44.2
2019-06-26T03:54:58.391Z,43.7
2019-06-26T03:56:58.426Z,44.3
2019-06-26T03:58:58.324Z,44.1
2019-06-26T04:00:58.200Z,44.1
2019-06-26T04:02:58.133Z,44.2
2019-06-26T04:04:58.160Z,44.2
2019-06-26T04:06:58.062Z,44.4
2019-06-26T04:08:57.855Z,44.2
2019-06-26T04:10:57.894Z,44.5
2019-06-26T04:12:57.741Z,44.6
2019-06-26T04:14:57.603Z,44.8
2019-06-26T04:16:57.769Z,45.1
2019-06-26T04:18:57.300Z,45.1
2019-06-26T04:20:57.402Z,45.5
2019-06-26T04:22:58.565Z,44.9
2019-06-26T04:24:57.180Z,44.6
2019-06-26T04:26:57.265Z,44.6
2019-06-26T04:28:57.051Z,44.4
2019-06-26T04:30:56.760Z,44.2
2019-06-26T04:32:57.068Z,44.1
2019-06-26T04:34:56.874Z,44.4
2019-06-26T04:36:56.883Z,44.2
2019-06-26T04:38:56.650Z,44.4
2019-06-26T04:40:57.526Z,43.9
2019-06-26T04:42:56.513Z,43.7
2019-06-26T04:44:56.370Z,43.9
2019-06-26T04:46:56.318Z,43.5
2019-06-26T04:48:56.252Z,43.4
2019-06-26T04:50:56.257Z,43.1
2019-06-26T04:52:56.459Z,43
2019-06-26T04:54:55.977Z,43
2019-06-26T04:56:56.029Z,42.4
2019-06-26T04:58:56.472Z,42.5
2019-06-26T05:00:55.845Z,41.9
2019-06-26T05:02:56.009Z,41.4
2019-06-26T05:04:55.910Z,40.9
2019-06-26T05:06:56.521Z,41.1
2019-06-26T05:08:55.603Z,41.2
2019-06-26T05:10:55.705Z,41.2
2019-06-26T05:12:56.499Z,41.2
2019-06-26T05:14:55.347Z,41.2
2019-06-26T05:16:55.347Z,41.4
2019-06-26T05:18:55.433Z,41.7
2019-06-26T05:20:55.408Z,41.6
2019-06-26T05:22:57.531Z,41
2019-06-26T05:24:55.218Z,40.9
2019-06-26T05:26:55.048Z,41.1
2019-06-26T05:28:55.209Z,40.7
2019-06-26T05:30:54.993Z,40.1
2019-06-26T05:32:55.007Z,39.3
2019-06-26T05:34:54.977Z,39.3
2019-06-26T05:36:56.018Z,39.6
2019-06-26T05:38:54.883Z,39.1
2019-06-26T05:40:54.863Z,39.6
2019-06-26T05:42:56.498Z,39.8
2019-06-26T05:44:54.753Z,39.4
2019-06-26T05:46:54.730Z,38.8
2019-06-26T05:48:54.580Z,38.3
2019-06-26T05:50:54.589Z,39
2019-06-26T05:52:54.448Z,37.6
2019-06-26T05:54:54.419Z,37.9
2019-06-26T05:56:54.403Z,38.1
2019-06-26T05:58:54.520Z,38.2
2019-06-26T06:00:54.292Z,38.6
2019-06-26T06:02:54.467Z,37.8
2019-06-26T06:04:54.529Z,37.2
2019-06-26T06:06:55.333Z,37.4
2019-06-26T06:07:40.116Z,37.4
2019-06-26T06:08:54.259Z,37.8
2019-06-26T06:10:58.158Z,37.7
2019-06-26T06:12:54.035Z,36.4
2019-06-26T06:13:30.258Z,36.4
2019-06-26T06:14:53.985Z,36.8
2019-06-26T06:16:55.196Z,37.3
2019-06-26T06:18:54.049Z,36.7
2019-06-26T06:20:54.006Z,36.6
2019-06-26T06:22:54.093Z,36.6
2019-06-26T06:24:54.025Z,36.2
2019-06-26T06:26:53.852Z,36
2019-06-26T06:28:53.930Z,36.5
2019-06-26T06:30:53.726Z,36.5
2019-06-26T06:32:53.638Z,36.4
2019-06-26T06:34:53.777Z,36.7
2019-06-26T06:36:53.703Z,36.4
2019-06-26T06:38:53.623Z,35.8
2019-06-26T06:40:53.662Z,36.1
2019-06-26T06:42:54.318Z,35.7
2019-06-26T06:44:53.727Z,35.9
2019-06-26T06:47:03.252Z,35.9
2019-06-26T06:48:53.696Z,36
2019-06-26T06:50:53.610Z,35.9
2019-06-26T06:52:53.550Z,34.9
2019-06-26T06:54:53.463Z,35.5
2019-06-26T06:56:53.460Z,34.8
2019-06-26T06:58:54.763Z,35.1
2019-06-26T07:00:53.496Z,35.5
2019-06-26T07:02:53.293Z,34.8
2019-06-26T07:04:53.406Z,35.3
2019-06-26T07:06:53.516Z,35.8
2019-06-26T07:08:53.352Z,35.6
2019-06-26T07:10:53.579Z,35.7
2019-06-26T07:12:53.372Z,35.5
2019-06-26T07:14:53.405Z,35.3
2019-06-26T07:16:53.659Z,35.5
2019-06-26T07:18:53.319Z,34.5
2019-06-26T07:20:53.269Z,34.3
2019-06-26T07:22:53.707Z,34.6
2019-06-26T07:24:54.490Z,34.7
2019-06-26T07:26:53.261Z,34.4
2019-06-26T07:28:53.131Z,34.8
2019-06-26T07:30:53.221Z,34.7
2019-06-26T07:32:53.188Z,33.9
2019-06-26T07:34:53.331Z,34.3
2019-06-26T07:36:53.222Z,34.4
2019-06-26T07:38:52.960Z,34.9
2019-06-26T07:40:54.343Z,35.2
2019-06-26T07:42:53.123Z,35.2
2019-06-26T07:44:53.087Z,35.3
2019-06-26T07:46:53.039Z,35.4
2019-06-26T07:48:53.139Z,34.7
2019-06-26T07:50:52.944Z,35.6
2019-06-26T07:52:53.190Z,34.4
2019-06-26T07:54:53.112Z,34.3
2019-06-26T07:56:52.928Z,34.9
2019-06-26T07:58:53.189Z,34.4
2019-06-26T08:00:53.048Z,34.1
2019-06-26T08:02:53.100Z,34.2
2019-06-26T08:04:53.433Z,34.6
2019-06-26T08:06:52.974Z,33.8
2019-06-26T08:08:52.963Z,33.7
2019-06-26T08:10:53.059Z,34.2
2019-06-26T08:12:52.953Z,34.8
2019-06-26T08:14:52.927Z,34.5
2019-06-26T08:16:53.002Z,35
2019-06-26T08:18:52.862Z,35
2019-06-26T08:21:10.942Z,34.9
2019-06-26T08:22:53.024Z,35.3
2019-06-26T08:24:52.786Z,35.4
2019-06-26T08:26:52.927Z,34.7
2019-06-26T08:28:53.058Z,34.1
2019-06-26T08:30:52.924Z,34.6
2019-06-26T08:32:52.950Z,34.3
2019-06-26T08:34:52.773Z,34.7
2019-06-26T08:36:52.809Z,35.3
2019-06-26T08:38:52.968Z,35.3
2019-06-26T08:40:59.676Z,35.2
2019-06-26T08:42:52.823Z,35.3
2019-06-26T08:44:52.870Z,35.6
2019-06-26T08:46:52.924Z,36
2019-06-26T08:48:55.179Z,36.5
2019-06-26T08:50:52.738Z,40.1
2019-06-26T08:52:53.731Z,41.1
2019-06-26T08:54:56.513Z,41.9
2019-06-26T08:56:53.243Z,44.2
2019-06-26T08:58:52.843Z,46.2
2019-06-26T09:00:52.708Z,43.6
2019-06-26T09:02:54.042Z,42.8
2019-06-26T09:04:53.108Z,41.6
2019-06-26T09:06:53.734Z,42
2019-06-26T09:08:52.581Z,41.2
2019-06-26T09:10:54.552Z,40.5
2019-06-26T09:12:56.288Z,40.2
2019-06-26T09:14:52.875Z,39.9
2019-06-26T09:16:52.539Z,39.7
2019-06-26T09:18:52.618Z,39.4
2019-06-26T09:20:52.166Z,39.3
2019-06-26T09:22:53.411Z,38.9
2019-06-26T09:24:52.557Z,38.5
2019-06-26T09:26:54.857Z,38.1
2019-06-26T09:28:54.254Z,38.5
2019-06-26T09:30:52.932Z,38.6
2019-06-26T09:32:53.532Z,38.5
2019-06-26T09:34:53.008Z,38.6
2019-06-26T09:36:51.858Z,38.6
2019-06-26T09:38:57.739Z,38.9
2019-06-26T09:40:52.288Z,38
2019-06-26T09:42:52.345Z,38.5
2019-06-26T09:44:54.738Z,38.3
2019-06-26T09:46:51.721Z,38.2
2019-06-26T09:48:53.139Z,38.3
2019-06-26T09:50:52.593Z,38.3
2019-06-26T09:52:52.556Z,38.1
2019-06-26T09:54:51.466Z,38.1
2019-06-26T09:56:51.502Z,38
2019-06-26T09:58:52.208Z,38.2
2019-06-26T10:00:51.853Z,38.7
2019-06-26T10:02:51.633Z,38.7
2019-06-26T10:04:51.747Z,37.8
2019-06-26T10:06:54.224Z,37.3
2019-06-26T10:07:39.781Z,37.3
2019-06-26T10:08:54.285Z,37.8
2019-06-26T10:10:51.497Z,37.8
2019-06-26T10:12:51.382Z,39.8
2019-06-26T10:14:51.197Z,38.6
2019-06-26T10:16:51.722Z,38.7
2019-06-26T10:18:51.100Z,38.5
2019-06-26T10:20:51.764Z,38.1
2019-06-26T10:22:53.271Z,37.9
2019-06-26T10:24:52.325Z,37.9
2019-06-26T10:26:51.261Z,38.3
2019-06-26T10:28:52.117Z,38.5
2019-06-26T10:30:50.826Z,37.9
2019-06-26T10:32:51.243Z,38.2
2019-06-26T10:34:52.375Z,38.4
2019-06-26T10:36:51.367Z,38.6
2019-06-26T10:38:51.995Z,39
2019-06-26T10:40:51.822Z,38.8
2019-06-26T10:42:51.203Z,39.4
2019-06-26T10:44:50.697Z,38.8
2019-06-26T10:46:51.265Z,38.3
2019-06-26T10:48:50.600Z,37.9
2019-06-26T10:50:58.210Z,37.8
2019-06-26T10:52:50.713Z,38
2019-06-26T10:54:51.252Z,37.8
2019-06-26T10:56:51.005Z,36.6
2019-06-26T10:58:51.257Z,36.2
2019-06-26T11:00:50.959Z,36.1
2019-06-26T11:02:50.762Z,36.8
2019-06-26T11:04:51.869Z,37.2
2019-06-26T11:06:52.091Z,37.3
2019-06-26T11:08:50.274Z,38.1
2019-06-26T11:10:51.258Z,38.1
2019-06-26T11:12:50.603Z,38.8
2019-06-26T11:14:50.811Z,39.1
2019-06-26T11:16:50.640Z,39.3
2019-06-26T11:18:50.738Z,39.5
2019-06-26T11:20:50.186Z,39
2019-06-26T11:22:50.205Z,39
2019-06-26T11:24:50.182Z,38.7
2019-06-26T11:26:50.121Z,38.7
2019-06-26T11:28:50.550Z,38.8
2019-06-26T11:30:50.948Z,38.6
2019-06-26T11:32:49.999Z,38.3
2019-06-26T11:34:50.079Z,38.4
2019-06-26T11:37:02.997Z,38.6
2019-06-26T11:38:49.854Z,38.4
2019-06-26T11:40:49.936Z,38.4
2019-06-26T11:42:49.957Z,38.4
2019-06-26T11:44:49.745Z,38.5
2019-06-26T11:46:50.025Z,38.3
2019-06-26T11:48:49.657Z,38
2019-06-26T11:50:49.768Z,37.6
2019-06-26T11:52:49.542Z,37.8
2019-06-26T11:55:01.955Z,37.5
2019-06-26T11:56:49.613Z,38.5
2019-06-26T11:58:49.552Z,37
2019-06-26T12:00:52.423Z,37.1
2019-06-26T12:02:49.492Z,37.7
2019-06-26T12:04:49.483Z,37.8
2019-06-26T12:06:49.334Z,38.2
2019-06-26T12:08:49.237Z,38.2
2019-06-26T12:10:49.362Z,38.4
2019-06-26T12:12:49.452Z,38.5
2019-06-26T12:14:49.228Z,38.8
2019-06-26T12:16:49.188Z,39.3
2019-06-26T12:18:49.246Z,40.1
2019-06-26T12:20:49.136Z,40
2019-06-26T12:22:50.114Z,39.3
2019-06-26T13:11:37.212Z,45.4
2019-06-26T13:13:36.880Z,45.5
2019-06-26T13:15:36.947Z,45.2
2019-06-26T13:17:37.029Z,44.6
2019-06-26T13:19:36.720Z,44.3
2019-06-26T13:21:36.726Z,43.6
2019-06-26T13:23:36.610Z,42.9
2019-06-26T13:25:37.020Z,42.8
2019-06-26T13:27:37.490Z,42.6
2019-06-26T13:29:36.773Z,41.2
2019-06-26T13:31:36.465Z,41.1
2019-06-26T13:33:36.512Z,41
2019-06-26T13:35:36.505Z,41.1
2019-06-26T13:37:36.608Z,42.1
2019-06-26T13:39:36.401Z,43.2
2019-06-26T13:41:36.567Z,44.1
2019-06-26T13:43:36.183Z,45.2
2019-06-26T13:45:36.291Z,45.6
2019-06-26T13:47:36.447Z,46
2019-06-26T13:49:36.198Z,46
2019-06-26T13:51:36.361Z,45.9
2019-06-26T13:53:36.106Z,46
2019-06-26T13:55:36.020Z,46.7
2019-06-26T13:57:36.461Z,46.9
2019-06-26T13:59:36.272Z,49.5
2019-06-26T14:01:37.392Z,50.8
2019-06-26T14:03:35.848Z,53.9
2019-06-26T14:05:35.996Z,58.7
2019-06-26T14:07:35.897Z,68.6
2019-06-26T14:09:35.760Z,67.7
2019-06-26T14:11:35.728Z,72.5
2019-06-26T14:13:35.705Z,74.6
2019-06-26T14:15:35.413Z,79.1
2019-06-26T14:17:35.396Z,81.8
2019-06-26T14:19:35.195Z,79.5
2019-06-26T14:21:36.070Z,83.7
2019-06-26T14:23:37.881Z,83.4
2019-06-26T14:25:34.791Z,85.9
2019-06-26T14:27:34.790Z,83.5
2019-06-26T14:29:34.710Z,86.4
2019-06-26T14:31:34.405Z,86.2
2019-06-26T14:33:34.153Z,82.8
2019-06-26T14:35:34.016Z,85.6
2019-06-26T14:37:33.903Z,84.2
2019-06-26T14:39:33.604Z,83.4
2019-06-26T14:41:33.450Z,82.6
2019-06-26T14:43:33.352Z,84.6
2019-06-26T14:45:33.110Z,84.5
2019-06-26T14:47:35.583Z,83.5
2019-06-26T14:49:33.841Z,82.8
2019-06-26T14:51:46.436Z,84.7
2019-06-26T14:53:32.544Z,85.4
2019-06-26T14:55:32.307Z,86.6
2019-06-26T14:57:32.155Z,88.3
2019-06-26T14:59:33.267Z,87.2
2019-06-26T15:01:31.825Z,86.6
2019-06-26T15:03:31.678Z,87
2019-06-26T15:05:31.740Z,87.8
2019-06-26T15:07:31.468Z,88.7
2019-06-26T15:09:31.219Z,90
2019-06-26T15:11:31.165Z,87.7
2019-06-26T15:13:30.884Z,87.6
2019-06-26T15:15:30.914Z,88.3
2019-06-26T15:17:30.659Z,88.9
2019-06-26T15:19:30.334Z,88.8
2019-06-26T15:21:31.280Z,88.9
2019-06-26T15:23:30.412Z,89.2
2019-06-26T15:25:30.202Z,89.8
2019-06-26T15:27:29.842Z,90.4
2019-06-26T15:29:29.683Z,91
2019-06-26T15:31:30.438Z,90.6
2019-06-26T15:33:29.265Z,90.6
2019-06-26T15:35:29.218Z,91.1
2019-06-26T15:37:29.010Z,89.8
2019-06-26T15:39:28.901Z,90.2
2019-06-26T15:41:28.869Z,89
2019-06-26T15:43:29.320Z,89.7
2019-06-26T15:45:28.357Z,89.7
2019-06-26T15:47:28.184Z,90.2
2019-06-26T15:49:27.982Z,90.5
2019-06-26T15:51:28.096Z,90.1
2019-06-26T15:53:27.814Z,89.3
2019-06-26T15:55:27.623Z,89.5
2019-06-26T15:57:27.475Z,88.6
2019-06-26T15:59:30.839Z,89.4
2019-06-26T16:01:27.209Z,89.6
2019-06-26T16:03:27.019Z,88.6
2019-06-26T16:05:26.997Z,87.7
2019-06-26T16:07:26.855Z,89.9
2019-06-26T16:09:26.784Z,87.4
2019-06-26T16:11:26.579Z,88.2
2019-06-26T16:13:26.267Z,88.9
2019-06-26T16:15:26.139Z,88.5
2019-06-26T16:17:26.239Z,89.5
2019-06-26T16:19:25.922Z,92
2019-06-26T16:21:25.758Z,91.6
2019-06-26T16:23:25.496Z,90.7
2019-06-26T16:25:25.400Z,91
2019-06-26T16:27:25.246Z,91.1
2019-06-26T16:29:24.950Z,90.2
2019-06-26T16:31:25.129Z,87.8
2019-06-26T16:33:25.919Z,88.5
2019-06-26T16:35:24.598Z,87.8
2019-06-26T16:37:24.416Z,88.9
2019-06-26T16:39:24.230Z,88.7
2019-06-26T16:41:24.152Z,86.2
2019-06-26T16:43:24.043Z,86.4
2019-06-26T16:45:24.199Z,88.4
2019-06-26T16:47:23.856Z,90.3
2019-06-26T16:49:23.508Z,91
2019-06-26T16:51:23.466Z,90.8
2019-06-26T16:53:23.274Z,90.5
2019-06-26T16:55:23.030Z,89.6
2019-06-26T16:57:23.129Z,86.2
2019-06-26T16:59:22.822Z,88.8
2019-06-26T17:01:22.432Z,88.2
2019-06-26T17:03:22.375Z,89
2019-06-26T17:05:22.384Z,89.2
2019-06-26T17:07:22.033Z,89.2
2019-06-26T17:09:22.258Z,86.8
2019-06-26T17:11:21.944Z,86.6
2019-06-26T17:13:21.548Z,88.5
2019-06-26T17:15:21.494Z,90.1
2019-06-26T17:17:21.303Z,90.2
2019-06-26T17:19:21.200Z,90.4
2019-06-26T17:21:20.876Z,90.5
2019-06-26T17:23:20.717Z,90.6
2019-06-26T17:25:20.727Z,90.9
2019-06-26T17:27:20.421Z,91.1
2019-06-26T17:29:20.258Z,91.3
2019-06-26T17:31:20.203Z,92.2
2019-06-26T17:33:20.019Z,91.1
2019-06-26T17:35:19.859Z,91.5
2019-06-26T17:37:19.650Z,90.4
2019-06-26T17:39:19.557Z,91.7
2019-06-26T17:41:19.591Z,92.3
2019-06-26T17:43:19.176Z,92.3
2019-06-26T17:45:19.041Z,92.5
2019-06-26T17:47:18.949Z,92.3
2019-06-26T17:49:18.689Z,92.3
2019-06-26T17:51:18.656Z,92.3
2019-06-26T17:53:22.006Z,91.1
2019-06-26T17:55:18.461Z,90.8
2019-06-26T17:57:18.139Z,91.1
2019-06-26T17:59:18.505Z,90.7
2019-06-26T18:01:18.788Z,91.4
2019-06-26T18:03:18.051Z,92.6
2019-06-26T18:05:17.510Z,92.6
2019-06-26T18:07:17.373Z,92.3
2019-06-26T18:09:17.112Z,92.8
2019-06-26T18:11:16.985Z,92.7
2019-06-26T18:13:16.897Z,92.6
2019-06-26T18:15:16.723Z,91.5
2019-06-26T18:17:21.957Z,91.6
2019-06-26T18:19:16.471Z,92.8
2019-06-26T18:21:16.245Z,92.3
2019-06-26T18:23:16.086Z,91.6
2019-06-26T18:25:16.771Z,90.5
2019-06-26T18:27:15.823Z,91.5
2019-06-26T18:29:16.351Z,92.7
2019-06-26T18:31:15.453Z,92
2019-06-26T18:33:15.662Z,92.3
2019-06-26T18:35:15.402Z,92
2019-06-26T18:37:14.887Z,92
2019-06-26T18:39:14.711Z,92
2019-06-26T18:41:14.457Z,92.1
2019-06-26T18:43:15.213Z,92.1
2019-06-26T18:45:14.409Z,92.1
2019-06-26T18:47:13.878Z,91.7
2019-06-26T18:49:14.276Z,91.8
2019-06-26T18:51:13.885Z,91.6
2019-06-26T18:53:13.426Z,92.8
2019-06-26T18:55:13.468Z,92.4
2019-06-26T18:57:13.160Z,92.3
2019-06-26T18:59:12.966Z,92.6
2019-06-26T19:01:12.819Z,92.2
2019-06-26T19:03:13.199Z,92.2
2019-06-26T19:05:12.491Z,92.3
2019-06-26T19:07:12.271Z,92.7
2019-06-26T19:09:12.265Z,92.7
2019-06-26T19:11:12.976Z,92.9
2019-06-26T19:13:11.942Z,92.4
2019-06-26T19:15:12.155Z,92.7
2019-06-26T19:17:11.474Z,93.1
2019-06-26T19:19:12.472Z,91.6
2019-06-26T19:21:11.159Z,91.8
2019-06-26T19:23:10.989Z,92.6
2019-06-26T19:25:11.589Z,92.5
2019-06-26T19:27:10.448Z,92.5
2019-06-26T19:29:10.624Z,91.3
2019-06-26T19:31:10.241Z,91.3
2019-06-26T19:33:10.111Z,92.4
2019-06-26T19:35:25.461Z,91.7
2019-06-26T19:37:09.766Z,91.8
2019-06-26T19:39:09.780Z,92.3
2019-06-26T19:41:10.425Z,92.4
2019-06-26T19:43:11.080Z,91.7
2019-06-26T19:45:10.530Z,92.6
2019-06-26T19:47:08.954Z,92.4
2019-06-26T19:49:08.862Z,92.9
2019-06-26T19:51:08.622Z,93.1
2019-06-26T19:53:08.494Z,92.2
2019-06-26T19:55:09.259Z,92.5
2019-06-26T19:57:08.121Z,92.8
2019-06-26T19:59:08.030Z,92.6
2019-06-26T20:01:07.886Z,91.8
2019-06-26T20:03:07.841Z,91.6
2019-06-26T20:05:09.964Z,90.4
2019-06-26T20:09:07.508Z,92
2019-06-26T20:11:07.815Z,91.7
2019-06-26T20:13:06.940Z,91.8
2019-06-26T20:15:07.050Z,92.4
2019-06-26T20:17:07.488Z,92.2
2019-06-26T20:19:06.263Z,91
2019-06-26T20:21:06.100Z,91.1
2019-06-26T20:23:06.993Z,91
2019-06-26T20:25:05.901Z,91.7
2019-06-26T20:27:05.748Z,90.7
2019-06-26T20:29:05.829Z,91.1
2019-06-26T20:31:05.367Z,92.2
2019-06-26T20:33:05.142Z,92.4
2019-06-26T20:35:04.905Z,92.6
2019-06-26T20:37:04.728Z,91.5
2019-06-26T20:39:05.388Z,91.1
2019-06-26T20:41:04.753Z,90.4
2019-06-26T20:43:04.082Z,91.3
2019-06-26T20:45:04.061Z,90.6
2019-06-26T20:47:03.931Z,90.3
2019-06-26T20:49:03.847Z,91.4
2019-06-26T20:51:03.515Z,90.4
2019-06-26T20:53:03.344Z,88.8
2019-06-26T20:55:04.663Z,90.2
2019-06-26T20:57:02.875Z,89
2019-06-26T20:59:03.023Z,89.5
2019-06-26T21:01:03.664Z,87.8
2019-06-26T21:03:02.755Z,88.7
2019-06-26T21:05:02.472Z,89.8
2019-06-26T21:07:01.944Z,89.6
2019-06-26T21:09:05.130Z,89.3
2019-06-26T21:11:01.888Z,88.4
2019-06-26T21:13:01.845Z,89.6
2019-06-26T21:15:01.374Z,87.7
2019-06-26T21:17:01.354Z,86.7
2019-06-26T21:19:01.251Z,88.8
2019-06-26T21:21:00.969Z,88.4
2019-06-26T21:23:00.836Z,88.9
2019-06-26T21:25:13.734Z,89
2019-06-26T21:27:01.976Z,88.5
2019-06-26T21:29:00.946Z,89.1
2019-06-26T21:30:59.934Z,89.4
2019-06-26T21:32:59.906Z,88.8
2019-06-26T21:34:59.799Z,89
2019-06-26T21:36:59.370Z,88.2
2019-06-26T21:38:59.327Z,86.6
2019-06-26T21:40:59.424Z,88.7
2019-06-26T21:43:00.317Z,89.5
2019-06-26T21:44:58.595Z,90.2
2019-06-26T21:46:58.447Z,89.2
2019-06-26T21:48:59.310Z,87.9
2019-06-26T21:50:58.225Z,87.1
2019-06-26T22:08:57.103Z,89.1
2019-06-26T22:10:56.617Z,89.8
2019-06-26T22:12:56.548Z,90.6
2019-06-26T22:14:56.300Z,90.4
2019-06-26T22:16:56.254Z,90.2
2019-06-26T22:18:55.822Z,89.9
2019-06-26T22:20:55.801Z,88.8
2019-06-26T22:22:55.751Z,89.3
2019-06-26T22:24:55.220Z,88
2019-06-26T22:26:55.176Z,88.5
2019-06-26T22:28:55.202Z,88.1
2019-06-26T22:30:54.847Z,88.4
2019-06-26T22:32:55.593Z,88.8
2019-06-26T22:34:54.484Z,89.4
2019-06-26T22:36:54.365Z,89.1
2019-06-26T22:38:54.299Z,88.9
2019-06-26T22:40:53.895Z,87.6
2019-06-26T22:42:54.011Z,86
2019-06-26T22:44:53.652Z,88.8
2019-06-26T22:46:53.751Z,86.5
2019-06-26T22:48:56.241Z,85.6
2019-06-26T22:50:52.997Z,85.7
2019-06-26T22:52:53.982Z,85.2
2019-06-26T22:54:52.687Z,88.1
2019-06-26T22:56:52.494Z,83.9
2019-06-26T22:58:52.607Z,86.9
2019-06-26T23:00:52.705Z,87.7
2019-06-26T23:02:51.941Z,86.7
2019-06-26T23:04:56.498Z,88.1
2019-06-26T23:06:51.663Z,89
2019-06-26T23:08:51.645Z,87.4
2019-06-26T23:10:51.144Z,88.7
2019-06-26T23:12:51.513Z,88.8
2019-06-26T23:14:50.937Z,88.3
2019-06-26T23:16:50.736Z,88.5
2019-06-26T23:18:51.178Z,88.4
2019-06-26T23:20:50.237Z,89
2019-06-26T23:22:51.779Z,89.7
2019-06-26T23:24:49.986Z,89.7
2019-06-26T23:26:49.874Z,89
2019-06-26T23:28:49.650Z,89.1
2019-06-26T23:30:49.221Z,88.9
2019-06-26T23:32:49.348Z,88.8
2019-06-26T23:34:49.026Z,87.7
2019-06-26T23:36:48.921Z,88.3
2019-06-26T23:38:48.636Z,88.9
2019-06-26T23:40:48.441Z,89.1
2019-06-26T23:42:48.265Z,89.3
2019-06-26T23:44:48.307Z,89.4
2019-06-26T23:46:48.150Z,89.2
2019-06-26T23:48:47.660Z,89.5
2019-06-26T23:50:47.678Z,89.9
2019-06-26T23:52:47.795Z,89.8
2019-06-26T23:54:47.204Z,90.1
2019-06-26T23:56:47.066Z,90
2019-06-26T23:58:46.778Z,90.4
